sensor_id;sensor_type;location;lat;lon;timestamp;P1;durP1;ratioP1;P2;durP2;ratioP2
43311;SDS011;30041;48.300;16.352;2022-12-07T00:01:15;0.30;;;0.20;;
43311;SDS011;30041;48.300;16.352;2022-12-07T00:03:43;0.10;;;0.10;;
43311;SDS011;30041;48.300;16.352;2022-12-07T00:06:11;0.30;;;0.10;;
43311;SDS011;30041;48.300;16.352;2022-12-07T00:08:38;0.20;;;0.10;;
43311;SDS011;30041;48.300;16.352;2022-12-07T00:11:07;0.10;;;0.10;;
43311;SDS011;30041;48.300;16.352;2022-12-07T00:13:35;0.82;;;0.20;;
43311;SDS011;30041;48.300;16.352;2022-12-07T00:16:06;0.20;;;0.13;;
43311;SDS011;30041;48.300;16.352;2022-12-07T00:18:38;0.20;;;0.10;;
43311;SDS011;30041;48.300;16.352;2022-12-07T00:21:11;0.25;;;0.25;;
43311;SDS011;30041;48.300;16.352;2022-12-07T00:23:39;0.30;;;0.20;;
43311;SDS011;30041;48.300;16.352;2022-12-07T00:28:37;0.38;;;0.17;;
43311;SDS011;30041;48.300;16.352;2022-12-07T00:31:08;0.10;;;0.10;;
43311;SDS011;30041;48.300;16.352;2022-12-07T00:33:36;0.10;;;0.10;;
43311;SDS011;30041;48.300;16.352;2022-12-07T00:36:03;0.17;;;0.10;;
43311;SDS011;30041;48.300;16.352;2022-12-07T00:38:32;0.38;;;0.10;;
43311;SDS011;30041;48.300;16.352;2022-12-07T00:41:00;0.10;;;0.10;;
43311;SDS011;30041;48.300;16.352;2022-12-07T00:43:27;0.20;;;0.10;;
43311;SDS011;30041;48.300;16.352;2022-12-07T00:45:53;0.10;;;0.10;;
43311;SDS011;30041;48.300;16.352;2022-12-07T00:48:19;0.52;;;0.10;;
43311;SDS011;30041;48.300;16.352;2022-12-07T00:50:45;0.20;;;0.20;;
43311;SDS011;30041;48.300;16.352;2022-12-07T00:53:11;0.10;;;0.10;;
43311;SDS011;30041;48.300;16.352;2022-12-07T00:55:37;0.10;;;0.10;;
43311;SDS011;30041;48.300;16.352;2022-12-07T00:58:03;0.28;;;0.10;;
43311;SDS011;30041;48.300;16.352;2022-12-07T01:00:29;0.20;;;0.10;;
43311;SDS011;30041;48.300;16.352;2022-12-07T01:02:55;0.28;;;0.28;;
43311;SDS011;30041;48.300;16.352;2022-12-07T01:05:21;0.30;;;0.20;;
43311;SDS011;30041;48.300;16.352;2022-12-07T01:07:47;0.10;;;0.10;;
43311;SDS011;30041;48.300;16.352;2022-12-07T01:10:13;0.20;;;0.10;;
43311;SDS011;30041;48.300;16.352;2022-12-07T01:12:39;0.20;;;0.20;;
43311;SDS011;30041;48.300;16.352;2022-12-07T01:15:05;0.32;;;0.10;;
43311;SDS011;30041;48.300;16.352;2022-12-07T01:17:32;0.25;;;0.10;;
43311;SDS011;30041;48.300;16.352;2022-12-07T01:19:57;0.10;;;0.10;;
43311;SDS011;30041;48.300;16.352;2022-12-07T01:22:23;0.15;;;0.10;;
43311;SDS011;30041;48.300;16.352;2022-12-07T01:24:48;0.00;;;0.00;;
43311;SDS011;30041;48.300;16.352;2022-12-07T01:27:14;0.28;;;0.20;;
43311;SDS011;30041;48.300;16.352;2022-12-07T01:29:40;0.10;;;0.10;;
43311;SDS011;30041;48.300;16.352;2022-12-07T01:32:06;0.20;;;0.20;;
43311;SDS011;30041;48.300;16.352;2022-12-07T01:34:31;0.20;;;0.10;;
43311;SDS011;30041;48.300;16.352;2022-12-07T01:36:57;0.10;;;0.10;;
43311;SDS011;30041;48.300;16.352;2022-12-07T01:39:23;0.50;;;0.20;;
43311;SDS011;30041;48.300;16.352;2022-12-07T01:41:48;0.30;;;0.20;;
43311;SDS011;30041;48.300;16.352;2022-12-07T01:46:52;0.00;;;0.00;;
43311;SDS011;30041;48.300;16.352;2022-12-07T01:49:40;0.15;;;0.10;;
43311;SDS011;30041;48.300;16.352;2022-12-07T01:52:17;0.15;;;0.10;;
43311;SDS011;30041;48.300;16.352;2022-12-07T01:54:47;0.40;;;0.20;;
43311;SDS011;30041;48.300;16.352;2022-12-07T01:57:16;0.00;;;0.00;;
43311;SDS011;30041;48.300;16.352;2022-12-07T01:59:43;0.03;;;0.00;;
43311;SDS011;30041;48.300;16.352;2022-12-07T02:02:13;0.10;;;0.10;;
43311;SDS011;30041;48.300;16.352;2022-12-07T02:04:45;0.13;;;0.10;;
43311;SDS011;30041;48.300;16.352;2022-12-07T02:07:11;0.10;;;0.10;;
43311;SDS011;30041;48.300;16.352;2022-12-07T02:09:37;0.05;;;0.05;;
43311;SDS011;30041;48.300;16.352;2022-12-07T02:12:03;0.10;;;0.10;;
43311;SDS011;30041;48.300;16.352;2022-12-07T02:14:29;0.10;;;0.10;;
43311;SDS011;30041;48.300;16.352;2022-12-07T02:25:33;0.10;;;0.10;;
43311;SDS011;30041;48.300;16.352;2022-12-07T02:28:37;0.22;;;0.15;;
43311;SDS011;30041;48.300;16.352;2022-12-07T02:31:23;0.10;;;0.10;;
43311;SDS011;30041;48.300;16.352;2022-12-07T02:33:54;0.10;;;0.10;;
43311;SDS011;30041;48.300;16.352;2022-12-07T02:36:31;0.17;;;0.10;;
43311;SDS011;30041;48.300;16.352;2022-12-07T02:39:07;0.15;;;0.10;;
43311;SDS011;30041;48.300;16.352;2022-12-07T02:41:44;0.03;;;0.03;;
43311;SDS011;30041;48.300;16.352;2022-12-07T02:44:14;0.10;;;0.10;;
43311;SDS011;30041;48.300;16.352;2022-12-07T02:46:48;0.13;;;0.08;;
43311;SDS011;30041;48.300;16.352;2022-12-07T02:49:18;0.15;;;0.15;;
43311;SDS011;30041;48.300;16.352;2022-12-07T02:51:46;0.00;;;0.00;;
43311;SDS011;30041;48.300;16.352;2022-12-07T02:54:13;0.10;;;0.10;;
43311;SDS011;30041;48.300;16.352;2022-12-07T03:04:33;0.20;;;0.10;;
43311;SDS011;30041;48.300;16.352;2022-12-07T03:07:10;0.00;;;0.00;;
43311;SDS011;30041;48.300;16.352;2022-12-07T03:09:59;0.13;;;0.13;;
43311;SDS011;30041;48.300;16.352;2022-12-07T03:13:18;0.20;;;0.10;;
43311;SDS011;30041;48.300;16.352;2022-12-07T03:15:42;0.05;;;0.00;;
43311;SDS011;30041;48.300;16.352;2022-12-07T03:18:16;0.10;;;0.00;;
43311;SDS011;30041;48.300;16.352;2022-12-07T03:20:45;0.10;;;0.10;;
43311;SDS011;30041;48.300;16.352;2022-12-07T03:23:14;0.20;;;0.20;;
43311;SDS011;30041;48.300;16.352;2022-12-07T03:25:43;0.30;;;0.10;;
43311;SDS011;30041;48.300;16.352;2022-12-07T03:28:13;0.30;;;0.10;;
43311;SDS011;30041;48.300;16.352;2022-12-07T03:30:49;0.20;;;0.10;;
43311;SDS011;30041;48.300;16.352;2022-12-07T03:33:24;0.10;;;0.10;;
43311;SDS011;30041;48.300;16.352;2022-12-07T03:36:17;0.10;;;0.10;;
43311;SDS011;30041;48.300;16.352;2022-12-07T03:38:52;0.15;;;0.15;;
43311;SDS011;30041;48.300;16.352;2022-12-07T03:41:24;0.00;;;0.00;;
43311;SDS011;30041;48.300;16.352;2022-12-07T03:43:53;0.30;;;0.10;;
43311;SDS011;30041;48.300;16.352;2022-12-07T03:46:24;0.17;;;0.10;;
43311;SDS011;30041;48.300;16.352;2022-12-07T03:49:16;0.00;;;0.00;;
43311;SDS011;30041;48.300;16.352;2022-12-07T03:57:11;0.00;;;0.00;;
43311;SDS011;30041;48.300;16.352;2022-12-07T03:59:38;0.05;;;0.03;;
43311;SDS011;30041;48.300;16.352;2022-12-07T04:02:06;0.05;;;0.05;;
43311;SDS011;30041;48.300;16.352;2022-12-07T04:04:33;0.20;;;0.10;;
43311;SDS011;30041;48.300;16.352;2022-12-07T04:06:59;0.10;;;0.10;;
43311;SDS011;30041;48.300;16.352;2022-12-07T04:09:25;0.08;;;0.08;;
43311;SDS011;30041;48.300;16.352;2022-12-07T04:11:51;0.20;;;0.10;;
43311;SDS011;30041;48.300;16.352;2022-12-07T04:14:17;0.10;;;0.10;;
43311;SDS011;30041;48.300;16.352;2022-12-07T04:16:42;0.00;;;0.00;;
43311;SDS011;30041;48.300;16.352;2022-12-07T04:19:08;0.10;;;0.10;;
43311;SDS011;30041;48.300;16.352;2022-12-07T04:21:33;0.20;;;0.10;;
43311;SDS011;30041;48.300;16.352;2022-12-07T04:23:59;0.38;;;0.15;;
43311;SDS011;30041;48.300;16.352;2022-12-07T04:26:25;0.05;;;0.05;;
43311;SDS011;30041;48.300;16.352;2022-12-07T04:28:50;0.30;;;0.10;;
43311;SDS011;30041;48.300;16.352;2022-12-07T04:31:16;0.10;;;0.10;;
43311;SDS011;30041;48.300;16.352;2022-12-07T04:33:41;0.10;;;0.10;;
43311;SDS011;30041;48.300;16.352;2022-12-07T04:36:07;0.10;;;0.00;;
43311;SDS011;30041;48.300;16.352;2022-12-07T04:38:33;0.10;;;0.10;;
43311;SDS011;30041;48.300;16.352;2022-12-07T04:41:03;0.10;;;0.10;;
43311;SDS011;30041;48.300;16.352;2022-12-07T04:43:30;0.10;;;0.10;;
43311;SDS011;30041;48.300;16.352;2022-12-07T04:45:55;0.10;;;0.10;;
43311;SDS011;30041;48.300;16.352;2022-12-07T04:48:21;0.08;;;0.08;;
43311;SDS011;30041;48.300;16.352;2022-12-07T04:50:48;0.20;;;0.10;;
43311;SDS011;30041;48.300;16.352;2022-12-07T04:53:14;0.00;;;0.00;;
43311;SDS011;30041;48.300;16.352;2022-12-07T04:55:39;0.10;;;0.10;;
43311;SDS011;30041;48.300;16.352;2022-12-07T04:58:04;0.30;;;0.20;;
43311;SDS011;30041;48.300;16.352;2022-12-07T05:00:30;0.00;;;0.00;;
43311;SDS011;30041;48.300;16.352;2022-12-07T05:02:56;0.10;;;0.10;;
43311;SDS011;30041;48.300;16.352;2022-12-07T05:05:21;0.00;;;0.00;;
43311;SDS011;30041;48.300;16.352;2022-12-07T05:07:47;0.10;;;0.10;;
43311;SDS011;30041;48.300;16.352;2022-12-07T05:10:12;0.00;;;0.00;;
43311;SDS011;30041;48.300;16.352;2022-12-07T05:12:38;0.10;;;0.03;;
43311;SDS011;30041;48.300;16.352;2022-12-07T05:15:04;0.00;;;0.00;;
43311;SDS011;30041;48.300;16.352;2022-12-07T05:17:30;0.10;;;0.10;;
43311;SDS011;30041;48.300;16.352;2022-12-07T05:19:55;0.10;;;0.10;;
43311;SDS011;30041;48.300;16.352;2022-12-07T05:22:21;0.20;;;0.05;;
43311;SDS011;30041;48.300;16.352;2022-12-07T05:24:46;0.00;;;0.00;;
43311;SDS011;30041;48.300;16.352;2022-12-07T05:27:12;0.00;;;0.00;;
43311;SDS011;30041;48.300;16.352;2022-12-07T05:29:38;0.10;;;0.00;;
43311;SDS011;30041;48.300;16.352;2022-12-07T05:32:03;0.00;;;0.00;;
43311;SDS011;30041;48.300;16.352;2022-12-07T05:34:29;0.00;;;0.00;;
43311;SDS011;30041;48.300;16.352;2022-12-07T05:36:55;0.00;;;0.00;;
43311;SDS011;30041;48.300;16.352;2022-12-07T05:39:21;0.10;;;0.08;;
43311;SDS011;30041;48.300;16.352;2022-12-07T05:41:46;0.00;;;0.00;;
43311;SDS011;30041;48.300;16.352;2022-12-07T05:44:12;0.00;;;0.00;;
43311;SDS011;30041;48.300;16.352;2022-12-07T05:46:38;0.00;;;0.00;;
43311;SDS011;30041;48.300;16.352;2022-12-07T05:49:04;0.00;;;0.00;;
43311;SDS011;30041;48.300;16.352;2022-12-07T05:51:29;0.00;;;0.00;;
43311;SDS011;30041;48.300;16.352;2022-12-07T05:53:55;0.00;;;0.00;;
43311;SDS011;30041;48.300;16.352;2022-12-07T05:56:21;0.10;;;0.00;;
43311;SDS011;30041;48.300;16.352;2022-12-07T05:58:46;0.28;;;0.00;;
43311;SDS011;30041;48.300;16.352;2022-12-07T06:01:12;0.35;;;0.05;;
43311;SDS011;30041;48.300;16.352;2022-12-07T06:03:38;0.30;;;0.10;;
43311;SDS011;30041;48.300;16.352;2022-12-07T06:06:03;1.50;;;0.10;;
43311;SDS011;30041;48.300;16.352;2022-12-07T06:08:29;0.20;;;0.10;;
43311;SDS011;30041;48.300;16.352;2022-12-07T06:10:55;0.00;;;0.00;;
43311;SDS011;30041;48.300;16.352;2022-12-07T06:13:21;0.73;;;0.10;;
43311;SDS011;30041;48.300;16.352;2022-12-07T06:15:47;0.10;;;0.10;;
43311;SDS011;30041;48.300;16.352;2022-12-07T06:18:12;0.47;;;0.20;;
43311;SDS011;30041;48.300;16.352;2022-12-07T06:20:38;0.08;;;0.08;;
43311;SDS011;30041;48.300;16.352;2022-12-07T06:23:03;0.30;;;0.08;;
43311;SDS011;30041;48.300;16.352;2022-12-07T06:25:29;0.43;;;0.10;;
43311;SDS011;30041;48.300;16.352;2022-12-07T06:27:55;1.23;;;0.03;;
43311;SDS011;30041;48.300;16.352;2022-12-07T06:30:20;0.10;;;0.10;;
43311;SDS011;30041;48.300;16.352;2022-12-07T06:32:46;0.20;;;0.10;;
43311;SDS011;30041;48.300;16.352;2022-12-07T06:35:12;0.00;;;0.00;;
43311;SDS011;30041;48.300;16.352;2022-12-07T06:37:37;0.10;;;0.10;;
43311;SDS011;30041;48.300;16.352;2022-12-07T06:40:03;0.85;;;0.00;;
43311;SDS011;30041;48.300;16.352;2022-12-07T06:42:30;0.10;;;0.10;;
43311;SDS011;30041;48.300;16.352;2022-12-07T06:44:56;0.20;;;0.10;;
43311;SDS011;30041;48.300;16.352;2022-12-07T06:47:22;0.52;;;0.10;;
43311;SDS011;30041;48.300;16.352;2022-12-07T06:49:47;0.00;;;0.00;;
43311;SDS011;30041;48.300;16.352;2022-12-07T06:52:13;0.35;;;0.10;;
43311;SDS011;30041;48.300;16.352;2022-12-07T06:54:38;0.10;;;0.10;;
43311;SDS011;30041;48.300;16.352;2022-12-07T06:57:04;0.22;;;0.10;;
43311;SDS011;30041;48.300;16.352;2022-12-07T06:59:30;0.00;;;0.00;;
43311;SDS011;30041;48.300;16.352;2022-12-07T07:01:55;0.00;;;0.00;;
43311;SDS011;30041;48.300;16.352;2022-12-07T07:04:21;0.10;;;0.10;;
43311;SDS011;30041;48.300;16.352;2022-12-07T07:06:47;0.00;;;0.00;;
43311;SDS011;30041;48.300;16.352;2022-12-07T07:09:13;0.15;;;0.00;;
43311;SDS011;30041;48.300;16.352;2022-12-07T07:11:39;0.35;;;0.00;;
43311;SDS011;30041;48.300;16.352;2022-12-07T07:14:06;0.00;;;0.00;;
43311;SDS011;30041;48.300;16.352;2022-12-07T07:16:32;0.00;;;0.00;;
43311;SDS011;30041;48.300;16.352;2022-12-07T07:18:58;0.10;;;0.10;;
43311;SDS011;30041;48.300;16.352;2022-12-07T07:21:24;0.00;;;0.00;;
43311;SDS011;30041;48.300;16.352;2022-12-07T07:23:51;0.13;;;0.10;;
43311;SDS011;30041;48.300;16.352;2022-12-07T07:26:17;0.10;;;0.10;;
43311;SDS011;30041;48.300;16.352;2022-12-07T07:28:44;0.10;;;0.00;;
43311;SDS011;30041;48.300;16.352;2022-12-07T07:31:09;0.10;;;0.00;;
43311;SDS011;30041;48.300;16.352;2022-12-07T07:33:35;0.05;;;0.00;;
43311;SDS011;30041;48.300;16.352;2022-12-07T07:36:02;0.00;;;0.00;;
43311;SDS011;30041;48.300;16.352;2022-12-07T07:38:29;0.13;;;0.10;;
43311;SDS011;30041;48.300;16.352;2022-12-07T07:40:56;0.00;;;0.00;;
43311;SDS011;30041;48.300;16.352;2022-12-07T07:43:24;0.10;;;0.00;;
43311;SDS011;30041;48.300;16.352;2022-12-07T07:45:50;0.10;;;0.10;;
43311;SDS011;30041;48.300;16.352;2022-12-07T07:48:16;0.00;;;0.00;;
43311;SDS011;30041;48.300;16.352;2022-12-07T07:50:44;0.00;;;0.00;;
43311;SDS011;30041;48.300;16.352;2022-12-07T07:53:11;0.00;;;0.00;;
43311;SDS011;30041;48.300;16.352;2022-12-07T07:55:40;0.28;;;0.00;;
43311;SDS011;30041;48.300;16.352;2022-12-07T07:58:07;0.00;;;0.00;;
43311;SDS011;30041;48.300;16.352;2022-12-07T08:00:35;0.20;;;0.10;;
43311;SDS011;30041;48.300;16.352;2022-12-07T08:03:03;0.10;;;0.05;;
43311;SDS011;30041;48.300;16.352;2022-12-07T08:05:31;0.08;;;0.00;;
43311;SDS011;30041;48.300;16.352;2022-12-07T08:08:03;0.10;;;0.10;;
43311;SDS011;30041;48.300;16.352;2022-12-07T08:10:30;0.08;;;0.08;;
43311;SDS011;30041;48.300;16.352;2022-12-07T08:12:58;0.00;;;0.00;;
43311;SDS011;30041;48.300;16.352;2022-12-07T08:15:26;0.00;;;0.00;;
43311;SDS011;30041;48.300;16.352;2022-12-07T08:17:53;0.10;;;0.10;;
43311;SDS011;30041;48.300;16.352;2022-12-07T08:20:20;0.10;;;0.10;;
43311;SDS011;30041;48.300;16.352;2022-12-07T08:22:46;0.10;;;0.10;;
43311;SDS011;30041;48.300;16.352;2022-12-07T08:25:12;0.17;;;0.10;;
43311;SDS011;30041;48.300;16.352;2022-12-07T08:27:39;0.00;;;0.00;;
43311;SDS011;30041;48.300;16.352;2022-12-07T08:30:06;0.10;;;0.10;;
43311;SDS011;30041;48.300;16.352;2022-12-07T08:32:34;0.10;;;0.10;;
43311;SDS011;30041;48.300;16.352;2022-12-07T08:34:59;0.05;;;0.00;;
43311;SDS011;30041;48.300;16.352;2022-12-07T08:37:25;0.20;;;0.10;;
43311;SDS011;30041;48.300;16.352;2022-12-07T08:39:52;0.15;;;0.00;;
43311;SDS011;30041;48.300;16.352;2022-12-07T08:42:20;0.17;;;0.08;;
43311;SDS011;30041;48.300;16.352;2022-12-07T08:44:47;0.10;;;0.10;;
43311;SDS011;30041;48.300;16.352;2022-12-07T08:47:12;0.10;;;0.10;;
43311;SDS011;30041;48.300;16.352;2022-12-07T08:49:43;0.03;;;0.03;;
43311;SDS011;30041;48.300;16.352;2022-12-07T08:52:14;0.20;;;0.00;;
43311;SDS011;30041;48.300;16.352;2022-12-07T08:54:43;0.10;;;0.03;;
43311;SDS011;30041;48.300;16.352;2022-12-07T08:57:09;0.10;;;0.10;;
43311;SDS011;30041;48.300;16.352;2022-12-07T08:59:36;0.08;;;0.08;;
43311;SDS011;30041;48.300;16.352;2022-12-07T09:02:05;0.00;;;0.00;;
43311;SDS011;30041;48.300;16.352;2022-12-07T09:04:34;1.00;;;0.10;;
43311;SDS011;30041;48.300;16.352;2022-12-07T09:07:02;0.00;;;0.00;;
43311;SDS011;30041;48.300;16.352;2022-12-07T09:09:30;0.10;;;0.10;;
43311;SDS011;30041;48.300;16.352;2022-12-07T09:11:55;0.00;;;0.00;;
43311;SDS011;30041;48.300;16.352;2022-12-07T09:14:22;0.10;;;0.00;;
43311;SDS011;30041;48.300;16.352;2022-12-07T09:16:50;0.85;;;0.30;;
43311;SDS011;30041;48.300;16.352;2022-12-07T09:19:19;3.38;;;0.75;;
43311;SDS011;30041;48.300;16.352;2022-12-07T09:21:47;4.50;;;0.93;;
43311;SDS011;30041;48.300;16.352;2022-12-07T09:24:13;2.22;;;0.70;;
43311;SDS011;30041;48.300;16.352;2022-12-07T09:26:41;2.15;;;0.43;;
43311;SDS011;30041;48.300;16.352;2022-12-07T09:29:08;1.83;;;0.63;;
43311;SDS011;30041;48.300;16.352;2022-12-07T09:31:35;2.85;;;0.50;;
43311;SDS011;30041;48.300;16.352;2022-12-07T09:34:02;1.33;;;0.70;;
43311;SDS011;30041;48.300;16.352;2022-12-07T09:36:28;0.73;;;0.50;;
43311;SDS011;30041;48.300;16.352;2022-12-07T09:38:56;2.35;;;0.82;;
43311;SDS011;30041;48.300;16.352;2022-12-07T09:41:24;1.33;;;0.70;;
43311;SDS011;30041;48.300;16.352;2022-12-07T09:43:57;2.35;;;0.90;;
43311;SDS011;30041;48.300;16.352;2022-12-07T09:46:29;0.95;;;0.60;;
43311;SDS011;30041;48.300;16.352;2022-12-07T09:49:11;1.77;;;0.83;;
43311;SDS011;30041;48.300;16.352;2022-12-07T09:52:03;10.38;;;1.80;;
43311;SDS011;30041;48.300;16.352;2022-12-07T09:54:44;6.97;;;1.35;;
43311;SDS011;30041;48.300;16.352;2022-12-07T09:57:13;6.43;;;1.77;;
43311;SDS011;30041;48.300;16.352;2022-12-07T09:59:39;6.70;;;1.20;;
43311;SDS011;30041;48.300;16.352;2022-12-07T10:02:22;5.80;;;1.20;;
43311;SDS011;30041;48.300;16.352;2022-12-07T10:04:59;7.88;;;1.75;;
43311;SDS011;30041;48.300;16.352;2022-12-07T10:07:26;11.00;;;1.30;;
43311;SDS011;30041;48.300;16.352;2022-12-07T10:09:51;3.58;;;1.25;;
43311;SDS011;30041;48.300;16.352;2022-12-07T10:12:18;3.30;;;1.10;;
43311;SDS011;30041;48.300;16.352;2022-12-07T10:14:54;6.30;;;1.15;;
43311;SDS011;30041;48.300;16.352;2022-12-07T10:17:27;6.88;;;2.67;;
43311;SDS011;30041;48.300;16.352;2022-12-07T10:22:36;11.50;;;2.10;;
43311;SDS011;30041;48.300;16.352;2022-12-07T10:25:09;5.60;;;1.58;;
43311;SDS011;30041;48.300;16.352;2022-12-07T10:27:56;5.97;;;1.60;;
43311;SDS011;30041;48.300;16.352;2022-12-07T10:30:29;7.18;;;1.73;;
43311;SDS011;30041;48.300;16.352;2022-12-07T10:32:57;4.70;;;1.60;;
43311;SDS011;30041;48.300;16.352;2022-12-07T10:35:24;6.20;;;1.63;;
43311;SDS011;30041;48.300;16.352;2022-12-07T10:37:53;3.63;;;1.80;;
43311;SDS011;30041;48.300;16.352;2022-12-07T10:40:32;11.95;;;2.28;;
43311;SDS011;30041;48.300;16.352;2022-12-07T10:53:22;7.00;;;2.08;;
43311;SDS011;30041;48.300;16.352;2022-12-07T10:56:17;4.18;;;2.20;;
43311;SDS011;30041;48.300;16.352;2022-12-07T11:01:50;8.43;;;2.80;;
43311;SDS011;30041;48.300;16.352;2022-12-07T11:09:47;11.73;;;2.70;;
43311;SDS011;30041;48.300;16.352;2022-12-07T11:14:44;10.10;;;2.72;;
43311;SDS011;30041;48.300;16.352;2022-12-07T11:17:24;8.52;;;2.70;;
43311;SDS011;30041;48.300;16.352;2022-12-07T11:31:05;6.35;;;2.00;;
43311;SDS011;30041;48.300;16.352;2022-12-07T11:33:56;11.57;;;2.65;;
43311;SDS011;30041;48.300;16.352;2022-12-07T11:39:00;9.57;;;2.58;;
43311;SDS011;30041;48.300;16.352;2022-12-07T11:41:30;8.00;;;2.70;;
43311;SDS011;30041;48.300;16.352;2022-12-07T11:49:40;8.63;;;1.92;;
43311;SDS011;30041;48.300;16.352;2022-12-07T11:54:35;10.05;;;2.47;;
43311;SDS011;30041;48.300;16.352;2022-12-07T11:57:12;11.48;;;2.20;;
43311;SDS011;30041;48.300;16.352;2022-12-07T11:59:50;7.22;;;2.08;;
43311;SDS011;30041;48.300;16.352;2022-12-07T12:02:29;9.88;;;2.17;;
43311;SDS011;30041;48.300;16.352;2022-12-07T12:07:43;17.00;;;2.80;;
43311;SDS011;30041;48.300;16.352;2022-12-07T12:10:19;11.55;;;2.47;;
43311;SDS011;30041;48.300;16.352;2022-12-07T12:13:06;12.57;;;1.87;;
43311;SDS011;30041;48.300;16.352;2022-12-07T12:18:51;14.35;;;2.17;;
43311;SDS011;30041;48.300;16.352;2022-12-07T12:21:31;9.68;;;2.15;;
43311;SDS011;30041;48.300;16.352;2022-12-07T12:24:12;9.05;;;1.83;;
43311;SDS011;30041;48.300;16.352;2022-12-07T12:26:54;6.72;;;1.60;;
43311;SDS011;30041;48.300;16.352;2022-12-07T12:29:33;9.07;;;1.67;;
43311;SDS011;30041;48.300;16.352;2022-12-07T12:32:11;5.50;;;1.40;;
43311;SDS011;30041;48.300;16.352;2022-12-07T12:34:57;6.97;;;1.50;;
43311;SDS011;30041;48.300;16.352;2022-12-07T12:42:48;7.35;;;1.58;;
43311;SDS011;30041;48.300;16.352;2022-12-07T12:47:51;5.78;;;1.25;;
43311;SDS011;30041;48.300;16.352;2022-12-07T12:50:24;3.97;;;1.20;;
43311;SDS011;30041;48.300;16.352;2022-12-07T12:53:32;6.05;;;1.02;;
43311;SDS011;30041;48.300;16.352;2022-12-07T12:58:29;5.15;;;1.00;;
43311;SDS011;30041;48.300;16.352;2022-12-07T13:03:55;5.78;;;1.15;;
43311;SDS011;30041;48.300;16.352;2022-12-07T13:08:50;1.88;;;0.80;;
43311;SDS011;30041;48.300;16.352;2022-12-07T13:11:29;2.40;;;0.88;;
43311;SDS011;30041;48.300;16.352;2022-12-07T13:17:01;2.40;;;0.50;;
43311;SDS011;30041;48.300;16.352;2022-12-07T13:32:39;1.33;;;0.50;;
43311;SDS011;30041;48.300;16.352;2022-12-07T13:35:50;2.42;;;0.43;;
43311;SDS011;30041;48.300;16.352;2022-12-07T13:37:53;1.80;;;0.50;;
43311;SDS011;30041;48.300;16.352;2022-12-07T13:40:21;1.50;;;0.43;;
43311;SDS011;30041;48.300;16.352;2022-12-07T13:42:48;0.85;;;0.40;;
43311;SDS011;30041;48.300;16.352;2022-12-07T13:45:27;1.63;;;0.50;;
43311;SDS011;30041;48.300;16.352;2022-12-07T13:47:58;4.72;;;1.85;;
43311;SDS011;30041;48.300;16.352;2022-12-07T13:50:25;8.85;;;2.00;;
43311;SDS011;30041;48.300;16.352;2022-12-07T13:52:57;4.75;;;1.80;;
43311;SDS011;30041;48.300;16.352;2022-12-07T13:55:25;5.80;;;1.88;;
43311;SDS011;30041;48.300;16.352;2022-12-07T13:57:53;5.78;;;1.95;;
43311;SDS011;30041;48.300;16.352;2022-12-07T14:00:23;6.82;;;1.63;;
43311;SDS011;30041;48.300;16.352;2022-12-07T14:05:29;6.28;;;1.80;;
43311;SDS011;30041;48.300;16.352;2022-12-07T14:08:01;7.32;;;2.13;;
43311;SDS011;30041;48.300;16.352;2022-12-07T14:10:33;6.88;;;1.75;;
43311;SDS011;30041;48.300;16.352;2022-12-07T14:13:03;6.30;;;2.10;;
43311;SDS011;30041;48.300;16.352;2022-12-07T14:15:45;4.53;;;1.65;;
43311;SDS011;30041;48.300;16.352;2022-12-07T14:18:26;5.43;;;1.90;;
43311;SDS011;30041;48.300;16.352;2022-12-07T14:21:03;5.07;;;1.70;;
43311;SDS011;30041;48.300;16.352;2022-12-07T14:23:36;4.25;;;1.90;;
43311;SDS011;30041;48.300;16.352;2022-12-07T14:26:15;5.10;;;2.10;;
43311;SDS011;30041;48.300;16.352;2022-12-07T14:28:45;4.65;;;1.92;;
43311;SDS011;30041;48.300;16.352;2022-12-07T14:31:15;5.88;;;1.70;;
43311;SDS011;30041;48.300;16.352;2022-12-07T14:33:42;5.45;;;1.98;;
43311;SDS011;30041;48.300;16.352;2022-12-07T14:36:10;4.90;;;1.75;;
43311;SDS011;30041;48.300;16.352;2022-12-07T14:38:37;4.15;;;1.63;;
43311;SDS011;30041;48.300;16.352;2022-12-07T14:41:04;5.20;;;1.65;;
43311;SDS011;30041;48.300;16.352;2022-12-07T14:43:38;3.90;;;1.70;;
43311;SDS011;30041;48.300;16.352;2022-12-07T14:46:04;4.55;;;1.60;;
43311;SDS011;30041;48.300;16.352;2022-12-07T14:48:30;3.70;;;1.50;;
43311;SDS011;30041;48.300;16.352;2022-12-07T14:50:55;4.07;;;1.30;;
43311;SDS011;30041;48.300;16.352;2022-12-07T14:53:21;2.40;;;1.52;;
43311;SDS011;30041;48.300;16.352;2022-12-07T14:55:54;2.90;;;1.42;;
43311;SDS011;30041;48.300;16.352;2022-12-07T14:58:20;4.28;;;1.33;;
43311;SDS011;30041;48.300;16.352;2022-12-07T15:00:46;2.65;;;1.50;;
43311;SDS011;30041;48.300;16.352;2022-12-07T15:03:13;2.90;;;1.50;;
43311;SDS011;30041;48.300;16.352;2022-12-07T15:05:39;3.42;;;1.50;;
43311;SDS011;30041;48.300;16.352;2022-12-07T15:08:06;4.78;;;1.85;;
43311;SDS011;30041;48.300;16.352;2022-12-07T15:10:34;3.83;;;1.48;;
43311;SDS011;30041;48.300;16.352;2022-12-07T15:13:00;2.85;;;1.58;;
43311;SDS011;30041;48.300;16.352;2022-12-07T15:15:28;3.75;;;1.30;;
43311;SDS011;30041;48.300;16.352;2022-12-07T15:17:54;2.38;;;1.27;;
43311;SDS011;30041;48.300;16.352;2022-12-07T15:20:20;4.35;;;1.52;;
43311;SDS011;30041;48.300;16.352;2022-12-07T15:22:45;4.47;;;1.45;;
43311;SDS011;30041;48.300;16.352;2022-12-07T15:25:14;8.30;;;1.67;;
43311;SDS011;30041;48.300;16.352;2022-12-07T15:27:40;3.72;;;1.30;;
43311;SDS011;30041;48.300;16.352;2022-12-07T15:30:06;4.20;;;1.40;;
43311;SDS011;30041;48.300;16.352;2022-12-07T15:32:32;4.05;;;1.50;;
43311;SDS011;30041;48.300;16.352;2022-12-07T15:34:58;4.30;;;1.20;;
43311;SDS011;30041;48.300;16.352;2022-12-07T15:37:24;3.08;;;1.27;;
43311;SDS011;30041;48.300;16.352;2022-12-07T15:39:50;4.55;;;1.25;;
43311;SDS011;30041;48.300;16.352;2022-12-07T15:42:16;4.10;;;1.33;;
43311;SDS011;30041;48.300;16.352;2022-12-07T15:44:43;4.50;;;1.20;;
43311;SDS011;30041;48.300;16.352;2022-12-07T15:47:09;6.53;;;1.75;;
43311;SDS011;30041;48.300;16.352;2022-12-07T15:49:35;4.53;;;1.60;;
43311;SDS011;30041;48.300;16.352;2022-12-07T15:52:01;4.47;;;1.33;;
43311;SDS011;30041;48.300;16.352;2022-12-07T15:54:28;2.65;;;1.25;;
43311;SDS011;30041;48.300;16.352;2022-12-07T15:56:55;2.58;;;1.38;;
43311;SDS011;30041;48.300;16.352;2022-12-07T15:59:23;3.58;;;1.30;;
43311;SDS011;30041;48.300;16.352;2022-12-07T16:01:56;4.72;;;1.30;;
43311;SDS011;30041;48.300;16.352;2022-12-07T16:04:26;3.90;;;1.10;;
43311;SDS011;30041;48.300;16.352;2022-12-07T16:06:53;3.00;;;1.20;;
43311;SDS011;30041;48.300;16.352;2022-12-07T16:09:19;3.20;;;1.10;;
43311;SDS011;30041;48.300;16.352;2022-12-07T16:11:44;3.28;;;1.45;;
43311;SDS011;30041;48.300;16.352;2022-12-07T16:14:10;4.03;;;1.10;;
43311;SDS011;30041;48.300;16.352;2022-12-07T16:16:36;4.60;;;1.25;;
43311;SDS011;30041;48.300;16.352;2022-12-07T16:19:01;8.13;;;1.30;;
43311;SDS011;30041;48.300;16.352;2022-12-07T16:21:27;3.45;;;1.30;;
43311;SDS011;30041;48.300;16.352;2022-12-07T16:23:52;4.38;;;1.50;;
43311;SDS011;30041;48.300;16.352;2022-12-07T16:26:19;4.85;;;1.30;;
43311;SDS011;30041;48.300;16.352;2022-12-07T16:28:49;4.80;;;1.38;;
43311;SDS011;30041;48.300;16.352;2022-12-07T16:31:18;3.83;;;1.30;;
43311;SDS011;30041;48.300;16.352;2022-12-07T16:33:46;2.95;;;1.08;;
43311;SDS011;30041;48.300;16.352;2022-12-07T16:36:13;3.67;;;1.20;;
43311;SDS011;30041;48.300;16.352;2022-12-07T16:38:39;3.85;;;0.93;;